sensor_id;sensor_type;location;lat;lon;timestamp;temperature;humidity
39067;DHT22;24821;51.988;6.020;2024-02-15T00:00:03;13.10;99.90
39067;DHT22;24821;51.988;6.020;2024-02-15T00:02:32;13.10;99.90
39067;DHT22;24821;51.988;6.020;2024-02-15T00:04:58;13.10;99.90
39067;DHT22;24821;51.988;6.020;2024-02-15T00:07:23;13.10;99.90
39067;DHT22;24821;51.988;6.020;2024-02-15T00:09:49;13.10;99.90
39067;DHT22;24821;51.988;6.020;2024-02-15T00:12:15;13.10;99.90
39067;DHT22;24821;51.988;6.020;2024-02-15T00:14:40;13.10;99.90
39067;DHT22;24821;51.988;6.020;2024-02-15T00:17:06;13.10;99.90
39067;DHT22;24821;51.988;6.020;2024-02-15T00:19:32;13.10;99.90
39067;DHT22;24821;51.988;6.020;2024-02-15T00:21:57;13.10;99.90
39067;DHT22;24821;51.988;6.020;2024-02-15T00:24:23;13.10;99.90
39067;DHT22;24821;51.988;6.020;2024-02-15T00:26:49;13.10;99.90
39067;DHT22;24821;51.988;6.020;2024-02-15T00:29:15;13.10;99.90
39067;DHT22;24821;51.988;6.020;2024-02-15T00:31:40;13.10;99.90
39067;DHT22;24821;51.988;6.020;2024-02-15T00:34:06;13.10;99.90
39067;DHT22;24821;51.988;6.020;2024-02-15T00:36:31;13.10;99.90
39067;DHT22;24821;51.988;6.020;2024-02-15T00:38:58;13.10;99.90
39067;DHT22;24821;51.988;6.020;2024-02-15T00:41:24;13.20;99.90
39067;DHT22;24821;51.988;6.020;2024-02-15T00:43:50;13.20;99.90
39067;DHT22;24821;51.988;6.020;2024-02-15T00:46:16;13.20;99.90
39067;DHT22;24821;51.988;6.020;2024-02-15T00:48:41;13.20;99.90
39067;DHT22;24821;51.988;6.020;2024-02-15T00:51:07;13.20;99.90
39067;DHT22;24821;51.988;6.020;2024-02-15T00:53:33;13.20;99.90
39067;DHT22;24821;51.988;6.020;2024-02-15T00:55:58;13.20;99.90
39067;DHT22;24821;51.988;6.020;2024-02-15T00:58:24;13.20;99.90
39067;DHT22;24821;51.988;6.020;2024-02-15T01:00:50;13.20;99.90
39067;DHT22;24821;51.988;6.020;2024-02-15T01:03:16;13.20;99.90
39067;DHT22;24821;51.988;6.020;2024-02-15T01:05:41;13.20;99.90
39067;DHT22;24821;51.988;6.020;2024-02-15T01:08:07;13.20;99.90
39067;DHT22;24821;51.988;6.020;2024-02-15T01:10:34;13.20;99.90
39067;DHT22;24821;51.988;6.020;2024-02-15T01:13:00;13.20;99.90
39067;DHT22;24821;51.988;6.020;2024-02-15T01:15:25;13.20;99.90
39067;DHT22;24821;51.988;6.020;2024-02-15T01:17:51;13.20;99.90
39067;DHT22;24821;51.988;6.020;2024-02-15T01:20:16;13.30;99.90
39067;DHT22;24821;51.988;6.020;2024-02-15T01:22:42;13.20;99.90
39067;DHT22;24821;51.988;6.020;2024-02-15T01:25:09;13.30;99.90
39067;DHT22;24821;51.988;6.020;2024-02-15T01:27:36;13.20;99.90
39067;DHT22;24821;51.988;6.020;2024-02-15T01:30:02;13.20;99.90
39067;DHT22;24821;51.988;6.020;2024-02-15T01:32:27;13.20;99.90
39067;DHT22;24821;51.988;6.020;2024-02-15T01:34:52;13.20;99.90
39067;DHT22;24821;51.988;6.020;2024-02-15T01:37:20;13.20;99.90
39067;DHT22;24821;51.988;6.020;2024-02-15T01:39:46;13.20;99.90
39067;DHT22;24821;51.988;6.020;2024-02-15T01:42:11;13.20;99.90
39067;DHT22;24821;51.988;6.020;2024-02-15T01:44:39;13.30;99.90
39067;DHT22;24821;51.988;6.020;2024-02-15T01:47:05;13.30;99.90
39067;DHT22;24821;51.988;6.020;2024-02-15T01:49:31;13.30;99.90
39067;DHT22;24821;51.988;6.020;2024-02-15T01:51:57;13.30;99.90
39067;DHT22;24821;51.988;6.020;2024-02-15T01:54:23;13.30;99.90
39067;DHT22;24821;51.988;6.020;2024-02-15T01:56:49;13.30;99.90
39067;DHT22;24821;51.988;6.020;2024-02-15T01:59:15;13.20;99.90
39067;DHT22;24821;51.988;6.020;2024-02-15T02:01:40;13.20;99.90
39067;DHT22;24821;51.988;6.020;2024-02-15T02:04:06;13.30;99.90
39067;DHT22;24821;51.988;6.020;2024-02-15T02:06:33;13.30;99.90
39067;DHT22;24821;51.988;6.020;2024-02-15T02:08:58;13.20;99.90
39067;DHT22;24821;51.988;6.020;2024-02-15T02:11:24;13.20;99.90
39067;DHT22;24821;51.988;6.020;2024-02-15T02:13:49;13.20;99.90
39067;DHT22;24821;51.988;6.020;2024-02-15T02:16:27;13.20;99.90
39067;DHT22;24821;51.988;6.020;2024-02-15T02:18:52;13.20;99.90
39067;DHT22;24821;51.988;6.020;2024-02-15T02:21:18;13.30;99.90
39067;DHT22;24821;51.988;6.020;2024-02-15T02:23:43;13.30;99.90
39067;DHT22;24821;51.988;6.020;2024-02-15T02:26:12;13.30;99.90
39067;DHT22;24821;51.988;6.020;2024-02-15T02:28:37;13.20;99.90
39067;DHT22;24821;51.988;6.020;2024-02-15T02:31:03;13.30;99.90
39067;DHT22;24821;51.988;6.020;2024-02-15T02:33:28;13.20;99.90
39067;DHT22;24821;51.988;6.020;2024-02-15T02:35:54;13.30;99.90
39067;DHT22;24821;51.988;6.020;2024-02-15T02:38:20;13.20;99.90
39067;DHT22;24821;51.988;6.020;2024-02-15T02:40:45;13.30;99.90
39067;DHT22;24821;51.988;6.020;2024-02-15T02:43:10;13.30;99.90
39067;DHT22;24821;51.988;6.020;2024-02-15T02:45:36;13.30;99.90
39067;DHT22;24821;51.988;6.020;2024-02-15T02:48:02;13.20;99.90
39067;DHT22;24821;51.988;6.020;2024-02-15T02:50:27;13.20;99.90
39067;DHT22;24821;51.988;6.020;2024-02-15T02:52:52;13.20;99.90
39067;DHT22;24821;51.988;6.020;2024-02-15T02:55:18;13.20;99.90
39067;DHT22;24821;51.988;6.020;2024-02-15T02:57:44;13.20;99.90
39067;DHT22;24821;51.988;6.020;2024-02-15T03:00:10;13.20;99.90
39067;DHT22;24821;51.988;6.020;2024-02-15T03:02:38;13.20;99.90
39067;DHT22;24821;51.988;6.020;2024-02-15T03:05:04;13.20;99.90
39067;DHT22;24821;51.988;6.020;2024-02-15T03:07:33;13.20;99.90
39067;DHT22;24821;51.988;6.020;2024-02-15T03:10:00;13.20;99.90
39067;DHT22;24821;51.988;6.020;2024-02-15T03:12:25;13.20;99.90
39067;DHT22;24821;51.988;6.020;2024-02-15T03:14:52;13.20;99.90
39067;DHT22;24821;51.988;6.020;2024-02-15T03:17:17;13.10;99.90
39067;DHT22;24821;51.988;6.020;2024-02-15T03:19:43;13.10;99.90
39067;DHT22;24821;51.988;6.020;2024-02-15T03:22:08;13.10;99.90
39067;DHT22;24821;51.988;6.020;2024-02-15T03:24:34;13.10;99.90
39067;DHT22;24821;51.988;6.020;2024-02-15T03:26:59;13.10;99.90
39067;DHT22;24821;51.988;6.020;2024-02-15T03:29:25;13.10;99.90
39067;DHT22;24821;51.988;6.020;2024-02-15T03:31:50;13.10;99.90
39067;DHT22;24821;51.988;6.020;2024-02-15T03:34:18;13.10;99.90
39067;DHT22;24821;51.988;6.020;2024-02-15T03:36:47;13.10;99.90
39067;DHT22;24821;51.988;6.020;2024-02-15T03:39:13;13.10;99.90
39067;DHT22;24821;51.988;6.020;2024-02-15T03:41:38;13.10;99.90
39067;DHT22;24821;51.988;6.020;2024-02-15T03:44:04;13.10;99.90
39067;DHT22;24821;51.988;6.020;2024-02-15T03:46:29;13.10;99.90
39067;DHT22;24821;51.988;6.020;2024-02-15T03:48:55;13.00;99.90
39067;DHT22;24821;51.988;6.020;2024-02-15T03:51:24;13.10;99.90
39067;DHT22;24821;51.988;6.020;2024-02-15T03:53:50;13.10;99.90
39067;DHT22;24821;51.988;6.020;2024-02-15T03:56:17;13.10;99.90
39067;DHT22;24821;51.988;6.020;2024-02-15T03:58:43;13.10;99.90
39067;DHT22;24821;51.988;6.020;2024-02-15T04:01:08;13.10;99.90
39067;DHT22;24821;51.988;6.020;2024-02-15T04:03:35;13.10;99.90
39067;DHT22;24821;51.988;6.020;2024-02-15T04:06:01;13.10;99.90
39067;DHT22;24821;51.988;6.020;2024-02-15T04:08:26;13.00;99.90
39067;DHT22;24821;51.988;6.020;2024-02-15T04:10:52;13.10;99.90
39067;DHT22;24821;51.988;6.020;2024-02-15T04:13:18;13.10;99.90
39067;DHT22;24821;51.988;6.020;2024-02-15T04:15:44;13.00;99.90
39067;DHT22;24821;51.988;6.020;2024-02-15T04:18:12;13.00;99.90
39067;DHT22;24821;51.988;6.020;2024-02-15T04:20:39;13.00;99.90
39067;DHT22;24821;51.988;6.020;2024-02-15T04:23:10;13.00;99.90
39067;DHT22;24821;51.988;6.020;2024-02-15T04:25:36;13.00;99.90
39067;DHT22;24821;51.988;6.020;2024-02-15T04:28:01;12.90;99.90
39067;DHT22;24821;51.988;6.020;2024-02-15T04:30:29;12.90;99.90
39067;DHT22;24821;51.988;6.020;2024-02-15T04:32:55;12.90;99.90
39067;DHT22;24821;51.988;6.020;2024-02-15T04:35:20;12.90;99.90
39067;DHT22;24821;51.988;6.020;2024-02-15T04:37:47;12.90;99.90
39067;DHT22;24821;51.988;6.020;2024-02-15T04:40:13;12.80;99.90
39067;DHT22;24821;51.988;6.020;2024-02-15T04:42:39;12.80;99.90
39067;DHT22;24821;51.988;6.020;2024-02-15T04:45:05;12.90;99.90
39067;DHT22;24821;51.988;6.020;2024-02-15T04:47:34;12.90;99.90
39067;DHT22;24821;51.988;6.020;2024-02-15T04:49:59;12.90;99.90
39067;DHT22;24821;51.988;6.020;2024-02-15T04:52:25;12.90;99.90
39067;DHT22;24821;51.988;6.020;2024-02-15T04:54:50;12.90;99.90
39067;DHT22;24821;51.988;6.020;2024-02-15T04:57:16;12.90;99.90
39067;DHT22;24821;51.988;6.020;2024-02-15T04:59:42;12.90;99.90
39067;DHT22;24821;51.988;6.020;2024-02-15T05:02:12;12.90;99.90
39067;DHT22;24821;51.988;6.020;2024-02-15T05:04:38;12.90;99.90
39067;DHT22;24821;51.988;6.020;2024-02-15T05:07:03;12.90;99.90
39067;DHT22;24821;51.988;6.020;2024-02-15T05:09:29;12.90;99.90
39067;DHT22;24821;51.988;6.020;2024-02-15T05:11:56;13.00;99.90
39067;DHT22;24821;51.988;6.020;2024-02-15T05:14:22;13.00;99.90
39067;DHT22;24821;51.988;6.020;2024-02-15T05:16:49;13.00;99.90
39067;DHT22;24821;51.988;6.020;2024-02-15T05:19:15;13.00;99.90
39067;DHT22;24821;51.988;6.020;2024-02-15T05:21:41;13.00;99.90
39067;DHT22;24821;51.988;6.020;2024-02-15T05:24:06;13.00;99.90
39067;DHT22;24821;51.988;6.020;2024-02-15T05:26:32;13.00;99.90
39067;DHT22;24821;51.988;6.020;2024-02-15T05:28:57;13.00;99.90
39067;DHT22;24821;51.988;6.020;2024-02-15T05:31:23;13.00;99.90
39067;DHT22;24821;51.988;6.020;2024-02-15T05:33:51;12.90;99.90
39067;DHT22;24821;51.988;6.020;2024-02-15T05:36:17;12.90;99.90
39067;DHT22;24821;51.988;6.020;2024-02-15T05:38:46;12.90;99.90
39067;DHT22;24821;51.988;6.020;2024-02-15T05:41:12;12.90;99.90
39067;DHT22;24821;51.988;6.020;2024-02-15T05:43:38;12.90;99.90
39067;DHT22;24821;51.988;6.020;2024-02-15T05:46:04;12.90;99.90
39067;DHT22;24821;51.988;6.020;2024-02-15T05:48:31;12.90;99.90
39067;DHT22;24821;51.988;6.020;2024-02-15T05:51:00;12.90;99.90
39067;DHT22;24821;51.988;6.020;2024-02-15T05:53:26;12.90;99.90
39067;DHT22;24821;51.988;6.020;2024-02-15T05:55:51;12.80;99.90
39067;DHT22;24821;51.988;6.020;2024-02-15T05:58:17;12.80;99.90
39067;DHT22;24821;51.988;6.020;2024-02-15T06:00:43;12.80;99.90
39067;DHT22;24821;51.988;6.020;2024-02-15T06:03:12;12.80;99.90
39067;DHT22;24821;51.988;6.020;2024-02-15T06:05:38;12.80;99.90
39067;DHT22;24821;51.988;6.020;2024-02-15T06:08:04;12.80;99.90
39067;DHT22;24821;51.988;6.020;2024-02-15T06:10:30;12.80;99.90
39067;DHT22;24821;51.988;6.020;2024-02-15T06:12:56;12.80;99.90
39067;DHT22;24821;51.988;6.020;2024-02-15T06:15:22;12.80;99.90
39067;DHT22;24821;51.988;6.020;2024-02-15T06:17:48;12.80;99.90
39067;DHT22;24821;51.988;6.020;2024-02-15T06:20:14;12.80;99.90
39067;DHT22;24821;51.988;6.020;2024-02-15T06:22:43;12.70;99.90
39067;DHT22;24821;51.988;6.020;2024-02-15T06:25:08;12.70;99.90
39067;DHT22;24821;51.988;6.020;2024-02-15T06:27:36;12.70;99.90
39067;DHT22;24821;51.988;6.020;2024-02-15T06:30:06;12.70;99.90
39067;DHT22;24821;51.988;6.020;2024-02-15T06:32:50;12.70;99.90
39067;DHT22;24821;51.988;6.020;2024-02-15T06:35:34;12.70;99.90
39067;DHT22;24821;51.988;6.020;2024-02-15T06:38:18;12.80;99.90
39067;DHT22;24821;51.988;6.020;2024-02-15T06:41:02;12.80;99.90
39067;DHT22;24821;51.988;6.020;2024-02-15T06:43:28;12.80;99.90
39067;DHT22;24821;51.988;6.020;2024-02-15T06:45:54;12.80;99.90
39067;DHT22;24821;51.988;6.020;2024-02-15T06:48:20;12.80;99.90
39067;DHT22;24821;51.988;6.020;2024-02-15T06:50:49;12.80;99.90
39067;DHT22;24821;51.988;6.020;2024-02-15T06:53:14;12.80;99.90
39067;DHT22;24821;51.988;6.020;2024-02-15T06:55:40;12.80;99.90
39067;DHT22;24821;51.988;6.020;2024-02-15T06:58:05;12.80;99.90
39067;DHT22;24821;51.988;6.020;2024-02-15T07:00:31;12.80;99.90
39067;DHT22;24821;51.988;6.020;2024-02-15T07:02:56;12.80;99.90
39067;DHT22;24821;51.988;6.020;2024-02-15T07:05:22;12.80;99.90
39067;DHT22;24821;51.988;6.020;2024-02-15T07:07:48;12.90;99.90
39067;DHT22;24821;51.988;6.020;2024-02-15T07:10:14;12.90;99.90
39067;DHT22;24821;51.988;6.020;2024-02-15T07:12:41;12.90;99.90
39067;DHT22;24821;51.988;6.020;2024-02-15T07:15:09;12.90;99.90
39067;DHT22;24821;51.988;6.020;2024-02-15T07:17:35;12.90;99.90
39067;DHT22;24821;51.988;6.020;2024-02-15T07:20:02;12.90;99.90
39067;DHT22;24821;51.988;6.020;2024-02-15T07:22:31;12.90;99.90
39067;DHT22;24821;51.988;6.020;2024-02-15T07:24:57;12.90;99.90
39067;DHT22;24821;51.988;6.020;2024-02-15T07:27:23;12.90;99.90
39067;DHT22;24821;51.988;6.020;2024-02-15T07:29:51;12.90;99.90
39067;DHT22;24821;51.988;6.020;2024-02-15T07:32:16;13.00;99.90
39067;DHT22;24821;51.988;6.020;2024-02-15T07:34:42;12.90;99.90
39067;DHT22;24821;51.988;6.020;2024-02-15T07:37:09;13.00;99.90
39067;DHT22;24821;51.988;6.020;2024-02-15T07:39:35;12.90;99.90
39067;DHT22;24821;51.988;6.020;2024-02-15T07:42:01;13.00;99.90
39067;DHT22;24821;51.988;6.020;2024-02-15T07:44:30;12.90;99.90
39067;DHT22;24821;51.988;6.020;2024-02-15T07:47:00;12.90;99.90
39067;DHT22;24821;51.988;6.020;2024-02-15T07:49:26;13.00;99.90
39067;DHT22;24821;51.988;6.020;2024-02-15T07:51:51;12.90;99.90
39067;DHT22;24821;51.988;6.020;2024-02-15T07:54:18;13.00;99.90
39067;DHT22;24821;51.988;6.020;2024-02-15T07:56:49;13.00;99.90
39067;DHT22;24821;51.988;6.020;2024-02-15T07:59:15;13.00;99.90
39067;DHT22;24821;51.988;6.020;2024-02-15T08:01:44;13.00;99.90
39067;DHT22;24821;51.988;6.020;2024-02-15T08:04:11;13.00;99.90
39067;DHT22;24821;51.988;6.020;2024-02-15T08:06:36;13.00;99.90
39067;DHT22;24821;51.988;6.020;2024-02-15T08:09:03;13.00;99.90
39067;DHT22;24821;51.988;6.020;2024-02-15T08:11:32;13.00;99.90
39067;DHT22;24821;51.988;6.020;2024-02-15T08:13:57;13.00;99.90
39067;DHT22;24821;51.988;6.020;2024-02-15T08:16:24;13.00;99.90
39067;DHT22;24821;51.988;6.020;2024-02-15T08:18:52;13.00;99.90
39067;DHT22;24821;51.988;6.020;2024-02-15T08:21:29;13.00;99.90
39067;DHT22;24821;51.988;6.020;2024-02-15T08:23:58;13.10;99.90
39067;DHT22;24821;51.988;6.020;2024-02-15T08:26:24;13.10;99.90
39067;DHT22;24821;51.988;6.020;2024-02-15T08:28:49;13.10;99.90
39067;DHT22;24821;51.988;6.020;2024-02-15T08:31:15;13.10;99.90
39067;DHT22;24821;51.988;6.020;2024-02-15T08:33:41;13.10;99.90
39067;DHT22;24821;51.988;6.020;2024-02-15T08:36:06;13.10;99.90
39067;DHT22;24821;51.988;6.020;2024-02-15T08:38:32;13.10;99.90
39067;DHT22;24821;51.988;6.020;2024-02-15T08:40:59;13.10;99.90
39067;DHT22;24821;51.988;6.020;2024-02-15T08:43:25;13.20;99.90
39067;DHT22;24821;51.988;6.020;2024-02-15T08:45:50;13.10;99.90
39067;DHT22;24821;51.988;6.020;2024-02-15T08:48:15;13.20;99.90
39067;DHT22;24821;51.988;6.020;2024-02-15T08:50:41;13.10;99.90
39067;DHT22;24821;51.988;6.020;2024-02-15T08:53:07;13.10;99.90
39067;DHT22;24821;51.988;6.020;2024-02-15T08:55:32;13.10;99.90
39067;DHT22;24821;51.988;6.020;2024-02-15T08:58:00;13.10;99.90
39067;DHT22;24821;51.988;6.020;2024-02-15T09:00:26;13.10;99.90
39067;DHT22;24821;51.988;6.020;2024-02-15T09:02:52;13.20;99.90
39067;DHT22;24821;51.988;6.020;2024-02-15T09:05:18;13.10;99.90
39067;DHT22;24821;51.988;6.020;2024-02-15T09:07:44;13.10;99.90
39067;DHT22;24821;51.988;6.020;2024-02-15T09:10:12;13.20;99.90
39067;DHT22;24821;51.988;6.020;2024-02-15T09:12:42;13.20;99.90
39067;DHT22;24821;51.988;6.020;2024-02-15T09:15:08;13.20;99.90
39067;DHT22;24821;51.988;6.020;2024-02-15T09:17:34;13.20;99.90
39067;DHT22;24821;51.988;6.020;2024-02-15T09:20:07;13.20;99.90
39067;DHT22;24821;51.988;6.020;2024-02-15T09:22:34;13.20;99.90
39067;DHT22;24821;51.988;6.020;2024-02-15T09:25:02;13.20;99.90
39067;DHT22;24821;51.988;6.020;2024-02-15T09:27:27;13.20;99.90
39067;DHT22;24821;51.988;6.020;2024-02-15T09:29:53;13.10;99.90
39067;DHT22;24821;51.988;6.020;2024-02-15T09:32:18;13.10;99.90
39067;DHT22;24821;51.988;6.020;2024-02-15T09:34:44;13.10;99.90
39067;DHT22;24821;51.988;6.020;2024-02-15T09:37:09;13.10;99.90
39067;DHT22;24821;51.988;6.020;2024-02-15T09:39:36;13.10;99.90
39067;DHT22;24821;51.988;6.020;2024-02-15T09:42:02;13.10;99.90
39067;DHT22;24821;51.988;6.020;2024-02-15T09:44:28;13.10;99.90
39067;DHT22;24821;51.988;6.020;2024-02-15T09:47:00;13.10;99.90
39067;DHT22;24821;51.988;6.020;2024-02-15T09:49:29;13.10;99.90
39067;DHT22;24821;51.988;6.020;2024-02-15T09:51:54;13.10;99.90
39067;DHT22;24821;51.988;6.020;2024-02-15T09:54:21;13.10;99.90
39067;DHT22;24821;51.988;6.020;2024-02-15T09:56:51;13.10;99.90
39067;DHT22;24821;51.988;6.020;2024-02-15T09:59:17;13.10;99.90
39067;DHT22;24821;51.988;6.020;2024-02-15T10:01:43;13.10;99.90
39067;DHT22;24821;51.988;6.020;2024-02-15T10:04:10;13.20;99.90
39067;DHT22;24821;51.988;6.020;2024-02-15T10:06:40;13.10;99.90
39067;DHT22;24821;51.988;6.020;2024-02-15T10:11:57;13.20;99.90
39067;DHT22;24821;51.988;6.020;2024-02-15T10:14:23;13.10;99.90
39067;DHT22;24821;51.988;6.020;2024-02-15T10:16:48;13.10;99.90
39067;DHT22;24821;51.988;6.020;2024-02-15T10:19:14;13.10;99.90
39067;DHT22;24821;51.988;6.020;2024-02-15T10:21:41;13.20;99.90
39067;DHT22;24821;51.988;6.020;2024-02-15T10:24:07;13.20;99.90
39067;DHT22;24821;51.988;6.020;2024-02-15T10:26:33;13.20;99.90
39067;DHT22;24821;51.988;6.020;2024-02-15T10:29:07;13.20;99.90
39067;DHT22;24821;51.988;6.020;2024-02-15T10:31:34;13.30;99.90
39067;DHT22;24821;51.988;6.020;2024-02-15T10:34:04;13.30;99.90
39067;DHT22;24821;51.988;6.020;2024-02-15T10:36:30;13.40;99.90
39067;DHT22;24821;51.988;6.020;2024-02-15T10:39:13;13.40;99.90
39067;DHT22;24821;51.988;6.020;2024-02-15T10:41:51;13.40;99.90
39067;DHT22;24821;51.988;6.020;2024-02-15T10:44:18;13.40;99.90
39067;DHT22;24821;51.988;6.020;2024-02-15T10:46:45;13.40;99.90
39067;DHT22;24821;51.988;6.020;2024-02-15T10:49:12;13.40;99.90
39067;DHT22;24821;51.988;6.020;2024-02-15T10:51:39;13.40;99.90
39067;DHT22;24821;51.988;6.020;2024-02-15T10:54:08;13.50;99.90
39067;DHT22;24821;51.988;6.020;2024-02-15T10:56:39;13.50;99.90
39067;DHT22;24821;51.988;6.020;2024-02-15T10:59:10;13.50;99.90
39067;DHT22;24821;51.988;6.020;2024-02-15T11:01:39;13.50;99.90
39067;DHT22;24821;51.988;6.020;2024-02-15T11:04:07;13.60;99.90
39067;DHT22;24821;51.988;6.020;2024-02-15T11:06:33;13.50;99.90
39067;DHT22;24821;51.988;6.020;2024-02-15T11:09:00;13.50;99.90
39067;DHT22;24821;51.988;6.020;2024-02-15T11:11:26;13.50;99.90
39067;DHT22;24821;51.988;6.020;2024-02-15T11:16:39;13.50;99.90
39067;DHT22;24821;51.988;6.020;2024-02-15T11:19:05;13.60;99.90
39067;DHT22;24821;51.988;6.020;2024-02-15T11:22:15;13.50;99.90
39067;DHT22;24821;51.988;6.020;2024-02-15T11:24:25;13.60;99.90
39067;DHT22;24821;51.988;6.020;2024-02-15T11:26:51;13.60;99.90
39067;DHT22;24821;51.988;6.020;2024-02-15T11:32:01;13.70;99.90
39067;DHT22;24821;51.988;6.020;2024-02-15T11:34:42;13.70;99.90
39067;DHT22;24821;51.988;6.020;2024-02-15T11:37:09;13.70;99.90
39067;DHT22;24821;51.988;6.020;2024-02-15T11:39:40;13.70;99.90
39067;DHT22;24821;51.988;6.020;2024-02-15T11:42:27;13.80;99.90
39067;DHT22;24821;51.988;6.020;2024-02-15T11:45:06;13.90;99.90
39067;DHT22;24821;51.988;6.020;2024-02-15T11:47:33;13.90;99.90
39067;DHT22;24821;51.988;6.020;2024-02-15T11:49:59;14.00;99.90
39067;DHT22;24821;51.988;6.020;2024-02-15T11:52:26;14.00;99.90
39067;DHT22;24821;51.988;6.020;2024-02-15T11:54:51;14.10;99.90
39067;DHT22;24821;51.988;6.020;2024-02-15T11:57:17;14.10;99.90
39067;DHT22;24821;51.988;6.020;2024-02-15T11:59:51;14.10;99.90
39067;DHT22;24821;51.988;6.020;2024-02-15T12:02:38;14.20;99.90
39067;DHT22;24821;51.988;6.020;2024-02-15T12:05:22;14.20;99.90
39067;DHT22;24821;51.988;6.020;2024-02-15T12:08:06;14.30;99.90
39067;DHT22;24821;51.988;6.020;2024-02-15T12:11:00;14.40;99.90
39067;DHT22;24821;51.988;6.020;2024-02-15T12:13:49;14.50;99.90
39067;DHT22;24821;51.988;6.020;2024-02-15T12:16:33;14.60;99.90
39067;DHT22;24821;51.988;6.020;2024-02-15T12:19:17;14.70;99.90
39067;DHT22;24821;51.988;6.020;2024-02-15T12:21:43;14.70;99.90
39067;DHT22;24821;51.988;6.020;2024-02-15T12:24:08;14.80;99.90
39067;DHT22;24821;51.988;6.020;2024-02-15T12:26:34;14.80;99.90
39067;DHT22;24821;51.988;6.020;2024-02-15T12:29:00;14.90;99.90
39067;DHT22;24821;51.988;6.020;2024-02-15T12:31:26;14.90;99.90
39067;DHT22;24821;51.988;6.020;2024-02-15T12:34:05;15.00;99.90
39067;DHT22;24821;51.988;6.020;2024-02-15T12:36:36;15.00;99.90
39067;DHT22;24821;51.988;6.020;2024-02-15T12:39:03;15.10;99.90
39067;DHT22;24821;51.988;6.020;2024-02-15T12:41:37;15.10;99.90
39067;DHT22;24821;51.988;6.020;2024-02-15T12:44:02;15.10;99.90
39067;DHT22;24821;51.988;6.020;2024-02-15T12:46:29;15.10;99.90
39067;DHT22;24821;51.988;6.020;2024-02-15T12:49:07;15.10;99.90
39067;DHT22;24821;51.988;6.020;2024-02-15T12:51:33;15.10;99.90
39067;DHT22;24821;51.988;6.020;2024-02-15T12:54:08;15.10;99.90
39067;DHT22;24821;51.988;6.020;2024-02-15T12:56:35;15.20;99.90
39067;DHT22;24821;51.988;6.020;2024-02-15T12:59:01;15.20;99.90
39067;DHT22;24821;51.988;6.020;2024-02-15T13:01:28;15.20;99.90
39067;DHT22;24821;51.988;6.020;2024-02-15T13:03:54;15.30;99.90
39067;DHT22;24821;51.988;6.020;2024-02-15T13:06:19;15.30;99.90
39067;DHT22;24821;51.988;6.020;2024-02-15T13:08:49;15.30;99.90
39067;DHT22;24821;51.988;6.020;2024-02-15T13:11:14;15.40;99.90
39067;DHT22;24821;51.988;6.020;2024-02-15T13:13:41;15.40;99.90
39067;DHT22;24821;51.988;6.020;2024-02-15T13:16:07;15.50;99.90
39067;DHT22;24821;51.988;6.020;2024-02-15T13:18:33;15.50;99.90
39067;DHT22;24821;51.988;6.020;2024-02-15T13:20:58;15.60;99.90
39067;DHT22;24821;51.988;6.020;2024-02-15T13:23:24;15.60;99.90
39067;DHT22;24821;51.988;6.020;2024-02-15T13:25:51;15.60;99.90
39067;DHT22;24821;51.988;6.020;2024-02-15T13:28:17;15.50;99.90
39067;DHT22;24821;51.988;6.020;2024-02-15T13:30:43;15.50;99.90
39067;DHT22;24821;51.988;6.020;2024-02-15T13:33:10;15.40;99.90
39067;DHT22;24821;51.988;6.020;2024-02-15T13:35:36;15.40;99.90
39067;DHT22;24821;51.988;6.020;2024-02-15T13:38:02;15.40;99.90
39067;DHT22;24821;51.988;6.020;2024-02-15T13:40:28;15.40;99.90
39067;DHT22;24821;51.988;6.020;2024-02-15T13:42:56;15.40;99.90
39067;DHT22;24821;51.988;6.020;2024-02-15T13:45:24;15.30;99.90
39067;DHT22;24821;51.988;6.020;2024-02-15T13:47:50;15.30;99.90
39067;DHT22;24821;51.988;6.020;2024-02-15T13:50:16;15.30;99.90
39067;DHT22;24821;51.988;6.020;2024-02-15T13:52:42;15.30;99.90
39067;DHT22;24821;51.988;6.020;2024-02-15T13:55:09;15.30;99.90
39067;DHT22;24821;51.988;6.020;2024-02-15T13:57:37;15.30;99.90
39067;DHT22;24821;51.988;6.020;2024-02-15T14:00:02;15.30;99.90
39067;DHT22;24821;51.988;6.020;2024-02-15T14:02:31;15.30;99.90
39067;DHT22;24821;51.988;6.020;2024-02-15T14:04:56;15.30;99.90
39067;DHT22;24821;51.988;6.020;2024-02-15T14:07:22;15.40;99.90
39067;DHT22;24821;51.988;6.020;2024-02-15T14:09:47;15.40;99.90
39067;DHT22;24821;51.988;6.020;2024-02-15T14:12:13;15.40;99.90
39067;DHT22;24821;51.988;6.020;2024-02-15T14:14:39;15.40;99.90
39067;DHT22;24821;51.988;6.020;2024-02-15T14:17:05;15.50;99.90
39067;DHT22;24821;51.988;6.020;2024-02-15T14:19:30;15.50;99.90
39067;DHT22;24821;51.988;6.020;2024-02-15T14:21:56;15.60;99.90
39067;DHT22;24821;51.988;6.020;2024-02-15T14:24:22;15.60;99.90
39067;DHT22;24821;51.988;6.020;2024-02-15T14:26:48;15.70;99.90
39067;DHT22;24821;51.988;6.020;2024-02-15T14:29:14;15.70;99.90
39067;DHT22;24821;51.988;6.020;2024-02-15T14:31:40;15.80;99.90
39067;DHT22;24821;51.988;6.020;2024-02-15T14:34:24;15.80;99.90
39067;DHT22;24821;51.988;6.020;2024-02-15T14:36:50;15.80;99.90
39067;DHT22;24821;51.988;6.020;2024-02-15T14:39:16;15.90;99.90
39067;DHT22;24821;51.988;6.020;2024-02-15T14:41:42;15.80;99.90
39067;DHT22;24821;51.988;6.020;2024-02-15T14:44:09;15.80;99.90
39067;DHT22;24821;51.988;6.020;2024-02-15T14:46:34;15.80;99.90
39067;DHT22;24821;51.988;6.020;2024-02-15T14:49:01;15.80;99.90
39067;DHT22;24821;51.988;6.020;2024-02-15T14:51:28;15.80;99.90
39067;DHT22;24821;51.988;6.020;2024-02-15T14:53:53;15.80;99.90
39067;DHT22;24821;51.988;6.020;2024-02-15T14:56:19;15.70;99.90
39067;DHT22;24821;51.988;6.020;2024-02-15T14:58:44;15.70;99.90
39067;DHT22;24821;51.988;6.020;2024-02-15T15:01:10;15.70;99.90
39067;DHT22;24821;51.988;6.020;2024-02-15T15:03:38;15.70;99.90
39067;DHT22;24821;51.988;6.020;2024-02-15T15:06:04;15.70;99.90
39067;DHT22;24821;51.988;6.020;2024-02-15T15:08:48;15.70;99.90
39067;DHT22;24821;51.988;6.020;2024-02-15T15:11:51;15.60;99.90
39067;DHT22;24821;51.988;6.020;2024-02-15T15:14:35;15.70;99.90
39067;DHT22;24821;51.988;6.020;2024-02-15T15:17:03;15.70;99.90
39067;DHT22;24821;51.988;6.020;2024-02-15T15:19:28;15.70;99.90
39067;DHT22;24821;51.988;6.020;2024-02-15T15:21:54;15.70;99.90
39067;DHT22;24821;51.988;6.020;2024-02-15T15:24:20;15.70;99.90
39067;DHT22;24821;51.988;6.020;2024-02-15T15:26:45;15.70;99.90
39067;DHT22;24821;51.988;6.020;2024-02-15T15:29:11;15.70;99.90
39067;DHT22;24821;51.988;6.020;2024-02-15T15:31:37;15.70;99.90
39067;DHT22;24821;51.988;6.020;2024-02-15T15:34:03;15.60;99.90
39067;DHT22;24821;51.988;6.020;2024-02-15T15:36:29;15.60;99.90
39067;DHT22;24821;51.988;6.020;2024-02-15T15:38:55;15.60;99.90